createdAt,value
2019-01-17T00:02:18.436Z,0.30
2019-01-17T00:04:48.480Z,0.53
2019-01-17T00:07:18.608Z,0.60
2019-01-17T00:09:48.680Z,0.57
2019-01-17T00:12:27.577Z,0.40
2019-01-17T00:15:03.584Z,0.90
2019-01-17T00:17:36.090Z,0.83
2019-01-17T00:20:07.334Z,1.10
2019-01-17T00:22:43.217Z,0.70
2019-01-17T00:25:29.747Z,0.67
2019-01-17T00:28:08.290Z,0.40
2019-01-17T00:30:46.953Z,0.50
2019-01-17T00:33:25.840Z,0.43
2019-01-17T00:36:02.060Z,0.30
2019-01-17T00:38:48.240Z,0.30
2019-01-17T00:41:18.286Z,0.30
2019-01-17T00:43:57.364Z,0.30
2019-01-17T00:46:27.095Z,0.30
2019-01-17T00:49:00.564Z,0.60
2019-01-17T00:51:33.548Z,0.30
2019-01-17T00:54:08.958Z,0.50
2019-01-17T00:56:38.097Z,0.33
2019-01-17T00:59:14.159Z,0.40
2019-01-17T01:01:44.230Z,0.40
2019-01-17T01:04:23.212Z,0.43
2019-01-17T01:07:11.270Z,0.40
2019-01-17T01:09:57.776Z,0.40
2019-01-17T01:12:27.832Z,0.50
2019-01-17T01:15:00.552Z,0.30
2019-01-17T01:17:36.352Z,0.33
2019-01-17T01:20:09.720Z,0.30
2019-01-17T01:22:52.037Z,0.20
2019-01-17T01:25:21.743Z,0.37
2019-01-17T01:27:54.496Z,0.40
2019-01-17T01:30:33.416Z,0.20
2019-01-17T01:33:21.601Z,0.20
2019-01-17T01:36:07.970Z,0.50
2019-01-17T01:38:38.012Z,0.40
2019-01-17T01:41:11.043Z,0.30
2019-01-17T01:43:46.873Z,0.30
2019-01-17T01:46:16.908Z,0.37
2019-01-17T01:48:58.948Z,0.50
2019-01-17T01:51:28.993Z,0.30
2019-01-17T01:53:57.409Z,0.40
2019-01-17T01:56:25.476Z,0.50
2019-01-17T01:58:53.890Z,0.40
2019-01-17T02:01:22.290Z,0.40
2019-01-17T02:03:50.700Z,0.40
2019-01-17T02:06:18.767Z,0.50
2019-01-17T02:08:46.845Z,0.57
2019-01-17T02:11:14.912Z,0.70
2019-01-17T02:13:44.459Z,0.30
2019-01-17T02:16:12.860Z,0.70
2019-01-17T02:18:41.295Z,0.40
2019-01-17T02:21:09.698Z,0.43
2019-01-17T02:23:37.764Z,0.30
2019-01-17T02:26:06.180Z,0.30
2019-01-17T02:28:34.577Z,0.30
2019-01-17T02:31:03.055Z,0.47
2019-01-17T02:33:31.452Z,0.27
2019-01-17T02:35:59.864Z,0.23
2019-01-17T02:38:28.264Z,0.30
2019-01-17T02:40:56.664Z,0.40
2019-01-17T02:43:24.736Z,0.30
2019-01-17T02:45:53.190Z,0.50
2019-01-17T02:48:21.592Z,0.40
2019-01-17T02:50:50.001Z,0.40
2019-01-17T02:53:18.396Z,0.40
2019-01-17T02:55:46.477Z,0.30
2019-01-17T02:58:14.878Z,0.40
2019-01-17T03:00:43.289Z,0.43
2019-01-17T03:03:11.684Z,0.57
2019-01-17T03:05:40.212Z,0.30
2019-01-17T03:08:08.787Z,0.20
2019-01-17T03:10:36.856Z,0.20
2019-01-17T03:13:05.325Z,0.30
2019-01-17T03:15:33.734Z,0.50
2019-01-17T03:18:02.135Z,0.37
2019-01-17T03:20:30.533Z,0.43
2019-01-17T03:22:58.941Z,0.50
2019-01-17T03:25:27.012Z,0.60
2019-01-17T03:27:55.476Z,0.40
2019-01-17T03:30:23.596Z,0.40
2019-01-17T03:32:52.135Z,0.30
2019-01-17T03:35:20.700Z,1.13
2019-01-17T03:37:49.109Z,0.90
2019-01-17T03:40:17.783Z,0.90
2019-01-17T03:42:46.568Z,1.17
2019-01-17T03:45:15.144Z,1.00
2019-01-17T03:47:43.550Z,0.50
2019-01-17T03:50:14.860Z,0.50
2019-01-17T03:53:28.696Z,0.77
2019-01-17T03:55:57.084Z,0.67
2019-01-17T03:58:25.164Z,1.20
2019-01-17T04:00:53.549Z,0.73
2019-01-17T04:03:21.951Z,1.07
2019-01-17T04:05:50.354Z,0.80
2019-01-17T04:08:18.752Z,1.20
2019-01-17T04:10:46.832Z,0.83
2019-01-17T04:13:15.224Z,0.80
2019-01-17T04:15:43.619Z,0.90
2019-01-17T04:18:11.695Z,1.30
2019-01-17T04:20:39.761Z,1.00
2019-01-17T04:23:08.167Z,1.13
2019-01-17T04:25:36.568Z,0.97
2019-01-17T04:28:04.639Z,1.00
2019-01-17T04:30:33.193Z,0.93
2019-01-17T04:33:01.592Z,0.80
2019-01-17T04:35:29.987Z,1.10
2019-01-17T04:37:58.413Z,1.10
2019-01-17T04:40:26.803Z,1.00
2019-01-17T04:43:14.569Z,0.97
2019-01-17T04:45:42.960Z,1.03
2019-01-17T04:48:11.359Z,1.00
2019-01-17T04:50:39.765Z,0.70
2019-01-17T04:53:08.161Z,1.00
2019-01-17T04:55:36.574Z,0.83
2019-01-17T04:58:04.710Z,0.90
2019-01-17T05:00:33.100Z,1.73
2019-01-17T05:03:01.500Z,1.00
2019-01-17T05:05:29.911Z,1.17
2019-01-17T05:07:58.311Z,1.00
2019-01-17T05:10:26.708Z,1.10
2019-01-17T05:12:55.107Z,0.90
2019-01-17T05:15:23.517Z,1.53
2019-01-17T05:17:51.916Z,0.90
2019-01-17T05:20:20.310Z,1.50
2019-01-17T05:22:48.708Z,1.30
2019-01-17T05:25:17.109Z,1.13
2019-01-17T05:27:45.185Z,1.00
2019-01-17T05:30:16.129Z,0.90
2019-01-17T05:32:44.604Z,0.90
2019-01-17T05:35:13.280Z,1.10
2019-01-17T05:37:41.951Z,1.23
2019-01-17T05:40:18.654Z,0.73
2019-01-17T05:42:47.306Z,0.90
2019-01-17T05:45:15.883Z,1.00
2019-01-17T05:47:43.992Z,0.70
2019-01-17T05:50:17.115Z,1.27
2019-01-17T05:52:45.577Z,0.90
2019-01-17T05:55:19.817Z,0.90
2019-01-17T05:57:44.042Z,0.90
2019-01-17T06:00:17.727Z,1.20
2019-01-17T06:02:46.113Z,1.37
2019-01-17T06:05:15.943Z,1.30
2019-01-17T06:07:44.340Z,1.40
2019-01-17T06:10:13.362Z,1.40
2019-01-17T06:12:41.776Z,1.70
2019-01-17T06:15:15.971Z,1.40
2019-01-17T06:17:44.448Z,1.30
2019-01-17T06:20:16.331Z,1.50
2019-01-17T06:22:44.479Z,1.93
2019-01-17T06:25:13.417Z,1.87
2019-01-17T06:27:41.552Z,1.87
2019-01-17T06:30:15.960Z,1.43
2019-01-17T06:32:44.425Z,1.77
2019-01-17T06:35:12.754Z,1.70
2019-01-17T06:37:40.832Z,1.87
2019-01-17T06:40:13.321Z,2.53
2019-01-17T06:42:41.794Z,2.37
2019-01-17T06:45:10.182Z,2.70
2019-01-17T06:47:38.624Z,2.27
2019-01-17T06:50:10.057Z,2.87
2019-01-17T06:52:38.456Z,2.60
2019-01-17T06:55:08.476Z,2.77
2019-01-17T06:57:37.180Z,2.57
2019-01-17T07:00:16.611Z,2.60
2019-01-17T07:02:45.351Z,2.17
2019-01-17T07:05:14.999Z,2.30
2019-01-17T07:07:43.403Z,4.23
2019-01-17T07:10:16.921Z,2.40
2019-01-17T07:12:46.120Z,2.40
2019-01-17T07:15:15.034Z,2.00
2019-01-17T07:17:43.436Z,1.90
2019-01-17T07:20:14.442Z,1.77
2019-01-17T07:22:43.212Z,1.60
2019-01-17T07:25:12.448Z,1.60
2019-01-17T07:27:41.026Z,2.10
2019-01-17T07:30:12.502Z,1.63
2019-01-17T07:32:42.189Z,1.90
2019-01-17T07:35:10.907Z,1.60
2019-01-17T07:37:39.447Z,1.50
2019-01-17T07:40:09.675Z,1.47
2019-01-17T07:42:38.088Z,1.00
2019-01-17T07:45:18.164Z,1.57
2019-01-17T07:47:46.600Z,1.33
2019-01-17T07:50:14.724Z,1.43
2019-01-17T07:52:43.425Z,1.30
2019-01-17T07:55:11.972Z,1.37
2019-01-17T07:57:40.439Z,1.10
2019-01-17T08:00:14.705Z,1.57
2019-01-17T08:02:43.097Z,1.37
2019-01-17T08:05:11.173Z,1.50
2019-01-17T08:07:39.563Z,1.50
2019-01-17T08:10:09.184Z,1.33
2019-01-17T08:12:37.576Z,1.20
2019-01-17T08:15:08.423Z,1.37
2019-01-17T08:17:36.825Z,1.70
2019-01-17T08:20:08.301Z,1.30
2019-01-17T08:22:36.691Z,1.53
2019-01-17T08:25:08.108Z,1.83
2019-01-17T08:27:36.574Z,1.20
2019-01-17T08:30:16.924Z,1.97
2019-01-17T08:32:45.323Z,1.00
2019-01-17T08:35:14.469Z,1.00
2019-01-17T08:37:42.862Z,1.10
2019-01-17T08:40:26.152Z,1.10
2019-01-17T08:42:54.547Z,1.00
2019-01-17T08:45:22.958Z,0.70
2019-01-17T08:47:51.350Z,0.87
2019-01-17T08:50:19.835Z,0.70
2019-01-17T08:52:48.435Z,0.60
2019-01-17T08:55:16.876Z,0.50
2019-01-17T08:57:45.325Z,0.90
2019-01-17T09:00:33.144Z,0.50
2019-01-17T09:03:01.537Z,0.73
2019-01-17T09:05:29.615Z,0.73
2019-01-17T09:07:58.005Z,0.60
2019-01-17T09:10:28.645Z,0.40
2019-01-17T09:12:57.035Z,0.60
2019-01-17T09:15:28.515Z,0.53
2019-01-17T09:17:56.916Z,0.50
2019-01-17T09:20:25.325Z,0.40
2019-01-17T09:22:53.718Z,0.63
2019-01-17T09:25:41.460Z,0.50
2019-01-17T09:28:09.854Z,0.40
2019-01-17T09:30:38.264Z,0.40
2019-01-17T09:33:06.659Z,0.47
2019-01-17T09:35:35.134Z,0.30
2019-01-17T09:38:03.659Z,0.55
2019-01-17T09:40:32.068Z,0.30
2019-01-17T09:43:00.460Z,0.33
2019-01-17T09:45:28.865Z,1.47
2019-01-17T09:47:57.260Z,0.40
2019-01-17T09:50:26.002Z,0.47
2019-01-17T09:52:54.633Z,0.60
2019-01-17T09:55:23.039Z,0.62
2019-01-17T09:57:51.440Z,0.45
2019-01-17T10:00:25.858Z,0.40
2019-01-17T10:02:54.380Z,0.30
2019-01-17T10:05:22.784Z,0.40
2019-01-17T10:07:51.248Z,0.30
2019-01-17T10:10:21.686Z,0.57
2019-01-17T10:12:50.259Z,0.55
2019-01-17T10:15:27.235Z,0.50
2019-01-17T10:18:10.467Z,0.40
2019-01-17T10:20:47.312Z,0.50
2019-01-17T10:23:19.595Z,0.40
2019-01-17T10:25:52.137Z,0.57
2019-01-17T10:28:29.423Z,0.70
2019-01-17T10:31:15.748Z,0.50
2019-01-17T10:33:49.820Z,0.40
2019-01-17T10:36:36.087Z,0.42
2019-01-17T10:39:07.562Z,0.60
2019-01-17T10:41:41.946Z,0.62
2019-01-17T10:44:25.229Z,0.53
2019-01-17T10:47:16.432Z,0.30
2019-01-17T10:50:03.083Z,0.50
2019-01-17T10:52:49.868Z,0.50
2019-01-17T10:55:30.299Z,0.50
2019-01-17T10:58:10.732Z,0.40
2019-01-17T11:00:42.208Z,0.40
2019-01-17T11:03:16.459Z,0.50
2019-01-17T11:05:47.951Z,0.40
2019-01-17T11:08:21.099Z,0.40
2019-01-17T11:11:04.852Z,0.30
2019-01-17T11:14:00.936Z,0.37
2019-01-17T11:16:35.123Z,0.30
2019-01-17T11:19:21.447Z,0.57
2019-01-17T11:22:09.272Z,0.40
2019-01-17T11:24:57.354Z,0.45
2019-01-17T11:27:57.439Z,0.50
2019-01-17T11:30:37.876Z,0.57
2019-01-17T11:33:09.356Z,0.47
2019-01-17T11:35:41.868Z,0.50
2019-01-17T11:38:25.332Z,0.30
2019-01-17T11:41:02.652Z,0.50
2019-01-17T11:43:42.423Z,0.50
2019-01-17T11:46:19.700Z,0.60
2019-01-17T11:48:52.874Z,0.50
2019-01-17T11:51:30.589Z,0.50
2019-01-17T11:54:00.210Z,0.60
2019-01-17T11:56:31.693Z,0.85
2019-01-17T11:59:25.986Z,0.57
2019-01-17T12:01:57.532Z,0.47
2019-01-17T12:04:31.748Z,0.60
2019-01-17T12:07:08.589Z,0.50
2019-01-17T12:09:38.186Z,0.70
2019-01-17T12:12:07.139Z,0.40
2019-01-17T12:14:35.207Z,0.60
2019-01-17T12:17:03.772Z,0.70
2019-01-17T12:19:32.180Z,0.60
2019-01-17T12:22:00.577Z,0.75
2019-01-17T12:24:29.176Z,0.60
2019-01-17T12:26:57.572Z,0.93
2019-01-17T12:29:25.980Z,0.50
2019-01-17T12:31:54.044Z,0.50
2019-01-17T12:34:22.443Z,0.50
2019-01-17T12:36:50.775Z,0.50
2019-01-17T12:39:19.180Z,0.60
2019-01-17T12:41:47.585Z,0.65
2019-01-17T12:44:16.148Z,0.90
2019-01-17T12:46:44.536Z,0.60
2019-01-17T12:49:12.946Z,0.90
2019-01-17T12:51:41.337Z,0.68
2019-01-17T12:54:09.732Z,1.00
2019-01-17T12:56:38.140Z,0.90
2019-01-17T12:59:06.536Z,1.02
2019-01-17T13:01:34.942Z,0.82
2019-01-17T13:04:03.620Z,0.82
2019-01-17T13:06:32.028Z,0.85
2019-01-17T13:09:00.415Z,0.70
2019-01-17T13:11:28.821Z,0.80
2019-01-17T13:13:57.217Z,0.98
2019-01-17T13:16:25.626Z,1.05
2019-01-17T13:18:54.019Z,0.85
2019-01-17T13:21:22.433Z,1.05
2019-01-17T13:23:50.820Z,1.00
2019-01-17T13:26:18.904Z,1.22
2019-01-17T13:28:47.291Z,1.30
2019-01-17T13:31:15.701Z,1.02
2019-01-17T13:33:44.096Z,0.93
2019-01-17T13:36:12.644Z,1.05
2019-01-17T13:38:41.036Z,0.90
2019-01-17T13:41:09.440Z,0.60
2019-01-17T13:43:38.015Z,1.35
2019-01-17T13:46:06.849Z,0.98
2019-01-17T13:48:36.860Z,0.70
2019-01-17T13:51:05.240Z,0.60
2019-01-17T13:53:33.650Z,0.70
2019-01-17T13:56:02.037Z,0.70
2019-01-17T13:58:30.444Z,0.50
2019-01-17T14:00:59.131Z,0.70
2019-01-17T14:03:27.610Z,0.80
2019-01-17T14:05:55.672Z,1.22
2019-01-17T14:08:24.081Z,2.47
2019-01-17T14:10:52.691Z,3.40
2019-01-17T14:13:21.159Z,1.87
2019-01-17T14:15:49.561Z,0.50
2019-01-17T14:18:17.960Z,0.57
2019-01-17T14:20:46.196Z,0.70
2019-01-17T14:23:14.596Z,0.30
2019-01-17T14:25:42.995Z,0.30
2019-01-17T14:28:11.455Z,0.37
2019-01-17T14:30:39.833Z,0.30
2019-01-17T14:33:08.232Z,0.40
2019-01-17T14:35:36.637Z,0.20
2019-01-17T14:38:05.092Z,0.20
2019-01-17T14:40:33.493Z,0.30
2019-01-17T14:43:01.892Z,0.40
2019-01-17T14:45:30.344Z,0.37
2019-01-17T14:47:58.736Z,0.40
2019-01-17T14:50:29.408Z,0.20
2019-01-17T14:52:57.875Z,0.20
2019-01-17T14:55:26.440Z,0.20
2019-01-17T14:57:54.828Z,0.10
2019-01-17T15:00:26.170Z,0.10
2019-01-17T15:02:54.825Z,0.10
2019-01-17T15:05:23.365Z,0.20
2019-01-17T15:07:51.765Z,0.10
2019-01-17T15:10:28.660Z,0.10
2019-01-17T15:12:57.056Z,0.23
2019-01-17T15:15:25.209Z,0.20
2019-01-17T15:17:53.283Z,0.20
2019-01-17T15:20:21.854Z,0.10
2019-01-17T15:22:52.284Z,0.20
2019-01-17T15:25:20.695Z,0.10
2019-01-17T15:27:49.088Z,0.20
2019-01-17T15:30:22.235Z,0.20
2019-01-17T15:32:50.599Z,0.20
2019-01-17T15:35:19.001Z,0.20
2019-01-17T15:37:47.395Z,0.10
2019-01-17T15:40:18.879Z,0.10
2019-01-17T15:42:47.361Z,0.10
2019-01-17T15:45:15.805Z,0.10
2019-01-17T15:47:44.196Z,0.10
2019-01-17T15:50:15.160Z,0.13
2019-01-17T15:52:43.556Z,0.20
2019-01-17T15:55:14.191Z,0.20
2019-01-17T15:57:42.944Z,0.20
2019-01-17T16:00:15.475Z,0.30
2019-01-17T16:02:43.888Z,0.37
2019-01-17T16:05:12.352Z,0.30
2019-01-17T16:07:40.447Z,0.40
2019-01-17T16:10:14.536Z,0.50
2019-01-17T16:12:43.216Z,0.30
2019-01-17T16:15:14.622Z,0.30
2019-01-17T16:17:43.038Z,0.20
2019-01-17T16:20:13.873Z,0.30
2019-01-17T16:22:42.453Z,0.30
2019-01-17T16:25:11.492Z,0.53
2019-01-17T16:27:41.773Z,0.43
2019-01-17T16:30:18.723Z,0.47
2019-01-17T16:32:47.173Z,0.57
2019-01-17T16:35:15.742Z,0.60
2019-01-17T16:37:44.258Z,0.60
2019-01-17T16:40:13.795Z,0.50
2019-01-17T16:42:42.204Z,0.60
2019-01-17T16:45:22.660Z,0.67
2019-01-17T16:47:51.309Z,0.40
2019-01-17T16:50:24.881Z,0.57
2019-01-17T16:52:53.300Z,0.60
2019-01-17T16:55:21.759Z,0.60
2019-01-17T16:57:50.496Z,0.70
2019-01-17T17:00:25.007Z,0.67
2019-01-17T17:02:53.412Z,0.60
2019-01-17T17:05:21.826Z,0.80
2019-01-17T17:07:50.256Z,0.87
2019-01-17T17:10:18.655Z,0.90
2019-01-17T17:12:47.091Z,1.37
2019-01-17T17:15:15.631Z,0.37
2019-01-17T17:17:44.037Z,0.50
2019-01-17T17:20:18.072Z,0.40
2019-01-17T17:22:46.573Z,0.73
2019-01-17T17:25:15.123Z,0.40
2019-01-17T17:27:43.800Z,0.40
2019-01-17T17:30:15.308Z,0.40
2019-01-17T17:32:43.785Z,0.60
2019-01-17T17:35:12.252Z,0.30
2019-01-17T17:37:40.660Z,0.40
2019-01-17T17:40:12.459Z,0.60
2019-01-17T17:42:40.859Z,0.90
2019-01-17T17:45:11.502Z,1.00
2019-01-17T17:47:39.898Z,2.80
2019-01-17T17:50:14.522Z,1.63
2019-01-17T17:52:42.767Z,0.60
2019-01-17T17:55:13.612Z,0.60
2019-01-17T17:57:42.018Z,0.60
2019-01-17T18:00:15.013Z,0.60
2019-01-17T18:02:43.844Z,0.70
2019-01-17T18:05:12.416Z,0.50
2019-01-17T18:07:40.807Z,0.50
2019-01-17T18:10:12.855Z,0.50
2019-01-17T18:12:41.247Z,0.50
2019-01-17T18:15:12.496Z,0.40
2019-01-17T18:17:40.563Z,0.83
2019-01-17T18:20:11.504Z,0.40
2019-01-17T18:22:39.975Z,0.60
2019-01-17T18:25:09.915Z,0.33
2019-01-17T18:27:38.460Z,0.60
2019-01-17T18:30:25.007Z,0.57
2019-01-17T18:32:53.072Z,0.30
2019-01-17T18:35:21.323Z,0.40
2019-01-17T18:37:49.886Z,0.43
2019-01-17T18:40:22.020Z,0.43
2019-01-17T18:42:50.412Z,0.40
2019-01-17T18:45:19.932Z,0.37
2019-01-17T18:47:49.125Z,0.47
2019-01-17T18:50:20.587Z,0.50
2019-01-17T18:52:48.840Z,0.50
2019-01-17T18:55:17.573Z,0.40
2019-01-17T18:57:46.259Z,0.60
2019-01-17T19:00:23.741Z,0.30
2019-01-17T19:02:52.211Z,0.40
2019-01-17T19:05:21.033Z,0.60
2019-01-17T19:07:49.712Z,0.77
2019-01-17T19:10:19.961Z,0.80
2019-01-17T19:12:48.099Z,0.50
2019-01-17T19:15:22.056Z,0.27
2019-01-17T19:17:50.452Z,0.40
2019-01-17T19:20:20.463Z,0.50
2019-01-17T19:22:49.900Z,0.50
2019-01-17T19:25:18.066Z,0.40
2019-01-17T19:27:46.188Z,0.47
2019-01-17T19:30:20.331Z,0.40
2019-01-17T19:32:48.844Z,0.40
2019-01-17T19:35:17.321Z,0.50
2019-01-17T19:37:45.388Z,0.50
2019-01-17T19:40:16.806Z,0.70
2019-01-17T19:42:45.262Z,0.30
2019-01-17T19:45:15.513Z,0.40
2019-01-17T19:47:44.321Z,0.30
2019-01-17T19:50:18.911Z,0.40
2019-01-17T19:52:47.328Z,0.43
2019-01-17T19:55:16.084Z,0.30
2019-01-17T19:57:44.577Z,0.40
2019-01-17T20:00:16.295Z,0.33
2019-01-17T20:02:44.760Z,0.40
2019-01-17T20:05:14.428Z,0.30
2019-01-17T20:07:43.172Z,0.20
2019-01-17T20:10:14.993Z,0.30
2019-01-17T20:12:43.543Z,0.20
2019-01-17T20:15:11.698Z,0.40
2019-01-17T20:17:40.387Z,0.37
2019-01-17T20:20:11.905Z,0.20
2019-01-17T20:22:40.468Z,0.23
2019-01-17T20:25:09.306Z,0.20
2019-01-17T20:27:37.374Z,0.20
2019-01-17T20:30:11.752Z,0.50
2019-01-17T20:32:40.268Z,0.23
2019-01-17T20:35:08.916Z,0.30
2019-01-17T20:37:37.373Z,0.30
2019-01-17T20:40:09.936Z,0.30
2019-01-17T20:42:38.393Z,0.20
2019-01-17T20:45:10.233Z,0.50
2019-01-17T20:47:38.631Z,0.20
2019-01-17T20:50:12.732Z,0.30
2019-01-17T20:52:41.134Z,0.30
2019-01-17T20:55:11.468Z,0.30
2019-01-17T20:57:40.715Z,0.30
2019-01-17T21:00:16.563Z,0.40
2019-01-17T21:02:44.972Z,0.30
2019-01-17T21:05:13.705Z,0.43
2019-01-17T21:07:42.107Z,0.40
2019-01-17T21:10:12.053Z,0.27
2019-01-17T21:12:40.456Z,0.43
2019-01-17T21:15:10.395Z,0.30
2019-01-17T21:17:38.793Z,0.30
2019-01-17T21:20:09.828Z,0.60
2019-01-17T21:22:37.975Z,0.37
2019-01-17T21:25:10.558Z,0.33
2019-01-17T21:27:38.955Z,0.70
2019-01-17T21:30:13.360Z,1.00
2019-01-17T21:32:41.756Z,0.20
2019-01-17T21:35:11.290Z,0.20
2019-01-17T21:37:39.698Z,0.37
2019-01-17T21:40:11.504Z,0.27
2019-01-17T21:42:39.903Z,0.30
2019-01-17T21:45:11.799Z,0.17
2019-01-17T21:47:40.284Z,0.33
2019-01-17T21:50:09.892Z,0.30
2019-01-17T21:52:38.061Z,0.30
2019-01-17T21:55:07.198Z,0.30
2019-01-17T21:57:35.615Z,0.33
2019-01-17T22:00:07.088Z,0.30
2019-01-17T22:02:36.455Z,0.30
2019-01-17T22:05:06.592Z,0.20
2019-01-17T22:07:34.995Z,0.17
2019-01-17T22:10:04.441Z,0.30
2019-01-17T22:12:32.509Z,0.20
2019-01-17T22:15:00.916Z,0.20
2019-01-17T22:17:29.315Z,0.23
2019-01-17T22:19:57.719Z,0.77
2019-01-17T22:22:26.119Z,0.30
2019-01-17T22:24:54.530Z,0.20
2019-01-17T22:27:22.972Z,0.50
2019-01-17T22:29:51.372Z,0.27
2019-01-17T22:32:19.760Z,0.40
2019-01-17T22:34:48.167Z,0.50
2019-01-17T22:37:16.564Z,0.40
2019-01-17T22:39:44.643Z,0.23
2019-01-17T22:42:13.044Z,0.23
2019-01-17T22:44:41.511Z,0.33
2019-01-17T22:47:09.587Z,0.40
2019-01-17T22:49:37.992Z,0.40
2019-01-17T22:52:06.456Z,0.50
2019-01-17T22:54:34.861Z,0.40
2019-01-17T22:57:03.259Z,0.17
2019-01-17T22:59:31.684Z,0.23
2019-01-17T23:02:00.152Z,0.40
2019-01-17T23:04:28.564Z,0.40
2019-01-17T23:06:57.028Z,0.40
2019-01-17T23:09:25.474Z,0.37
2019-01-17T23:11:53.904Z,0.30
2019-01-17T23:14:22.322Z,0.50
2019-01-17T23:16:50.705Z,0.30
2019-01-17T23:19:19.112Z,0.50
2019-01-17T23:21:47.264Z,0.40
2019-01-17T23:24:15.732Z,0.33
2019-01-17T23:26:44.132Z,0.40
2019-01-17T23:29:16.071Z,0.30
2019-01-17T23:31:42.780Z,0.40
2019-01-17T23:34:11.185Z,0.40
2019-01-17T23:36:39.648Z,0.87
2019-01-17T23:39:10.466Z,0.40
2019-01-17T23:41:38.852Z,0.30
2019-01-17T23:44:07.252Z,0.40
2019-01-17T23:46:35.644Z,0.40
2019-01-17T23:49:04.069Z,0.57
2019-01-17T23:51:32.459Z,0.87
2019-01-17T23:54:00.855Z,0.50
2019-01-17T23:56:29.256Z,0.40
2019-01-17T23:58:57.315Z,0.40
